Time;durP1;ratioP1;P1;durP2;ratioP2;P2;SDS_P1;SDS_P2;PMS_P1;PMS_P2;Temp;Humidity;BMP_temperature;BMP_pressure;BME280_temperature;BME280_humidity;BME280_pressure;Samples;Min_cycle;Max_cycle;Signal;HPM_P1;HPM_P2
2022/08/07 00:02:22;;;;;;;26.70;23.90;;;;;;;16.74;100.00;99634.88;105194;1271;70268;-70
2022/08/07 00:04:48;;;;;;;26.20;23.60;;;;;;;16.75;100.00;99633.95;105213;1271;61298;-71
2022/08/07 00:07:16;;;;;;;26.50;24.10;;;;;;;16.76;100.00;99632.38;105201;1271;61278;-69
2022/08/07 00:09:42;;;;;;;25.70;23.40;;;;;;;16.77;100.00;99626.02;105223;1271;61291;-70
2022/08/07 00:12:09;;;;;;;26.40;23.90;;;;;;;16.78;100.00;99627.19;104852;1271;75090;-70
2022/08/07 00:14:35;;;;;;;27.30;24.60;;;;;;;16.79;100.00;99626.77;104936;1271;61400;-70
2022/08/07 00:17:02;;;;;;;26.60;24.20;;;;;;;16.80;100.00;99629.42;105251;1269;61384;-69
2022/08/07 00:19:30;;;;;;;27.50;24.80;;;;;;;16.79;100.00;99631.96;104952;1271;61977;-69
2022/08/07 00:21:57;;;;;;;27.70;25.10;;;;;;;16.80;100.00;99637.15;105251;1271;61341;-70
2022/08/07 00:24:23;;;;;;;27.90;25.40;;;;;;;16.79;100.00;99639.73;105227;1271;75041;-71
2022/08/07 00:26:51;;;;;;;28.50;25.50;;;;;;;16.79;100.00;99642.38;105191;1271;70012;-71
2022/08/07 00:29:18;;;;;;;26.50;24.20;;;;;;;16.80;100.00;99645.55;105205;1271;72005;-69
2022/08/07 00:31:45;;;;;;;28.10;25.30;;;;;;;16.80;100.00;99641.42;105257;1271;61279;-70
2022/08/07 00:34:12;;;;;;;27.50;24.50;;;;;;;16.80;100.00;99640.16;105236;1271;62030;-70
2022/08/07 00:36:38;;;;;;;26.00;23.40;;;;;;;16.79;100.00;99640.25;105211;1271;76291;-71
2022/08/07 00:39:05;;;;;;;26.50;24.00;;;;;;;16.79;100.00;99646.52;105229;1271;70334;-71
2022/08/07 00:41:32;;;;;;;27.50;24.90;;;;;;;16.79;100.00;99646.38;105197;1271;73554;-71
2022/08/07 00:43:59;;;;;;;26.80;23.70;;;;;;;16.79;100.00;99644.23;104913;1271;61290;-71
2022/08/07 00:46:26;;;;;;;26.10;23.60;;;;;;;16.77;100.00;99646.31;105254;1271;61285;-71
2022/08/07 00:48:52;;;;;;;26.10;23.70;;;;;;;16.76;100.00;99641.02;105237;1270;75281;-71
2022/08/07 00:51:19;;;;;;;24.30;22.20;;;;;;;16.75;100.00;99643.83;105209;1271;61306;-71
2022/08/07 00:53:46;;;;;;;23.90;21.90;;;;;;;16.72;100.00;99646.91;105201;1271;73523;-71
2022/08/07 00:56:14;;;;;;;25.50;23.00;;;;;;;16.70;100.00;99651.92;105200;1270;61144;-70
2022/08/07 00:58:42;;;;;;;26.70;24.00;;;;;;;16.67;100.00;99653.01;105208;1271;61374;-70
2022/08/07 01:01:09;;;;;;;25.20;23.00;;;;;;;16.66;100.00;99651.35;105213;1271;75413;-70
2022/08/07 01:03:36;;;;;;;26.40;23.90;;;;;;;16.64;100.00;99648.45;105259;1271;69419;-71
2022/08/07 01:06:02;;;;;;;27.10;24.40;;;;;;;16.60;100.00;99646.94;105218;1271;74323;-71
2022/08/07 01:08:30;;;;;;;27.40;24.60;;;;;;;16.56;100.00;99642.96;105008;1271;61297;-71
2022/08/07 01:10:57;;;;;;;27.10;24.60;;;;;;;16.53;100.00;99642.36;105215;1271;61358;-70
2022/08/07 01:13:23;;;;;;;27.50;24.80;;;;;;;16.50;100.00;99640.09;105193;1271;75246;-70
2022/08/07 01:15:51;;;;;;;26.40;23.90;;;;;;;16.45;100.00;99640.10;105221;1271;69775;-70
2022/08/07 01:18:19;;;;;;;27.00;24.50;;;;;;;16.40;100.00;99635.15;105220;1270;74561;-70
2022/08/07 01:20:53;;;;;;;25.60;23.10;;;;;;;16.36;100.00;99638.69;105378;1271;61291;-71
2022/08/07 01:23:20;;;;;;;24.10;21.90;;;;;;;16.31;100.00;99638.38;105237;1270;61260;-70
2022/08/07 01:25:48;;;;;;;24.80;22.50;;;;;;;16.25;100.00;99637.94;105213;1270;75263;-70
2022/08/07 01:28:15;;;;;;;22.90;20.70;;;;;;;16.19;100.00;99641.09;104927;1271;68584;-70
2022/08/07 01:30:43;;;;;;;21.10;19.20;;;;;;;16.15;100.00;99638.27;105212;1271;72676;-71
2022/08/07 01:33:10;;;;;;;22.40;20.30;;;;;;;16.09;100.00;99636.73;105339;1271;61410;-70
2022/08/07 01:35:37;;;;;;;24.10;21.60;;;;;;;16.05;100.00;99637.98;105013;1271;61805;-70
2022/08/07 01:38:06;;;;;;;21.60;19.70;;;;;;;16.00;100.00;99640.11;105239;1271;76162;-71
2022/08/07 01:40:34;;;;;;;21.90;20.00;;;;;;;15.95;100.00;99640.55;105318;1270;70344;-70
2022/08/07 01:43:00;;;;;;;22.10;20.20;;;;;;;15.88;100.00;99639.65;105202;1271;73466;-70
2022/08/07 01:45:27;;;;;;;22.40;20.40;;;;;;;15.82;100.00;99636.33;104947;1271;61368;-70
2022/08/07 01:47:53;;;;;;;24.20;22.00;;;;;;;15.77;100.00;99635.30;105099;1271;61454;-71
2022/08/07 01:50:21;;;;;;;23.00;21.00;;;;;;;15.73;100.00;99630.95;104904;1271;75873;-71
2022/08/07 01:52:52;;;;;;;25.00;22.80;;;;;;;15.69;100.00;99629.45;105229;1269;68835;-71
2022/08/07 01:55:25;;;;;;;26.60;24.30;;;;;;;15.65;100.00;99627.41;105219;1271;74353;-68
2022/08/07 01:57:56;;;;;;;27.50;25.00;;;;;;;15.62;100.00;99627.36;105249;1271;61310;-70
2022/08/07 02:00:34;;;;;;;25.60;23.10;;;;;;;15.58;100.00;99626.00;105297;1271;61353;-70
2022/08/07 02:03:06;;;;;;;23.90;21.60;;;;;;;15.52;100.00;99626.08;105241;1271;77027;-70
2022/08/07 02:05:40;;;;;;;25.30;22.70;;;;;;;15.45;100.00;99621.26;105219;1271;71067;-70
2022/08/07 02:08:15;;;;;;;21.90;19.90;;;;;;;15.41;100.00;99621.44;105205;1271;73208;-71
2022/08/07 02:10:43;;;;;;;22.70;20.70;;;;;;;15.34;100.00;99617.84;105230;1271;61526;-70
2022/08/07 02:13:12;;;;;;;22.00;20.10;;;;;;;15.28;100.00;99621.19;105337;1271;61307;-70
2022/08/07 02:15:40;;;;;;;24.80;22.60;;;;;;;15.22;100.00;99623.41;105234;1271;75347;-71
2022/08/07 02:18:12;;;;;;;27.40;24.90;;;;;;;15.17;100.00;99623.27;105236;1271;69569;-70
2022/08/07 02:20:40;;;;;;;24.80;22.60;;;;;;;15.10;100.00;99628.94;104937;1271;73254;-72
2022/08/07 02:23:07;;;;;;;24.60;22.40;;;;;;;15.04;100.00;99629.39;105204;1271;61714;-70
2022/08/07 02:25:38;;;;;;;24.90;22.50;;;;;;;14.99;100.00;99630.54;105194;1271;61361;-70
2022/08/07 02:28:06;;;;;;;26.70;24.20;;;;;;;14.92;100.00;99630.86;105222;1271;75385;-70
2022/08/07 02:30:38;;;;;;;24.60;22.50;;;;;;;14.86;100.00;99632.92;105206;1270;69179;-70
2022/08/07 02:33:06;;;;;;;24.70;22.50;;;;;;;14.78;100.00;99638.52;105416;1271;73088;-71
2022/08/07 02:35:34;;;;;;;24.50;22.20;;;;;;;14.74;100.00;99635.98;105170;1271;62041;-69
2022/08/07 02:38:03;;;;;;;23.20;20.80;;;;;;;14.69;100.00;99634.71;105217;1271;61255;-69
2022/08/07 02:40:32;;;;;;;26.30;23.80;;;;;;;14.65;100.00;99638.75;105355;1270;74665;-70
2022/08/07 02:42:59;;;;;;;24.70;22.50;;;;;;;14.63;100.00;99638.03;105253;1271;70539;-70
2022/08/07 02:45:27;;;;;;;23.80;21.50;;;;;;;14.59;100.00;99635.09;105227;1270;74337;-70
2022/08/07 02:47:54;;;;;;;21.10;19.10;;;;;;;14.55;100.00;99635.19;105266;1271;61264;-71
2022/08/07 02:50:22;;;;;;;21.40;19.60;;;;;;;14.51;100.00;99637.26;105318;1271;61310;-70
2022/08/07 02:52:54;;;;;;;20.20;18.30;;;;;;;14.47;100.00;99640.23;105198;1271;73754;-70
2022/08/07 02:55:24;;;;;;;21.50;19.50;;;;;;;14.42;100.00;99638.62;105253;1271;69532;-71
2022/08/07 02:57:54;;;;;;;24.70;22.40;;;;;;;14.37;100.00;99636.47;105190;1270;72706;-70
2022/08/07 03:00:22;;;;;;;24.60;22.30;;;;;;;14.33;100.00;99640.36;105293;1271;61269;-70
2022/08/07 03:02:51;;;;;;;22.90;20.80;;;;;;;14.28;100.00;99638.16;104939;1271;61234;-71
2022/08/07 03:05:18;;;;;;;23.70;21.60;;;;;;;14.25;100.00;99641.08;105277;1270;77064;-70
2022/08/07 03:07:47;;;;;;;25.40;22.70;;;;;;;14.22;100.00;99637.36;105217;1271;70401;-70
2022/08/07 03:10:16;;;;;;;28.00;25.40;;;;;;;14.20;100.00;99637.54;105323;1269;73259;-70
2022/08/07 03:12:45;;;;;;;24.50;22.30;;;;;;;14.18;100.00;99637.81;105284;1271;61371;-70
2022/08/07 03:15:12;;;;;;;29.70;26.60;;;;;;;14.18;100.00;99638.56;105139;1271;61252;-70
2022/08/07 03:17:41;;;;;;;33.80;30.50;;;;;;;14.19;100.00;99639.73;105256;1271;75500;-70
2022/08/07 03:20:09;;;;;;;37.00;33.10;;;;;;;14.22;100.00;99640.05;104984;1271;70698;-71
2022/08/07 03:22:39;;;;;;;40.40;36.10;;;;;;;14.23;100.00;99642.51;105216;1271;72905;-70
2022/08/07 03:25:06;;;;;;;41.80;37.40;;;;;;;14.24;100.00;99639.74;105194;1269;61383;-70
2022/08/07 03:27:33;;;;;;;42.90;38.40;;;;;;;14.25;100.00;99639.63;105232;1270;61320;-71
2022/08/07 03:30:00;;;;;;;42.90;38.30;;;;;;;14.29;100.00;99644.23;104905;1271;73669;-70
2022/08/07 03:32:32;;;;;;;42.40;37.80;;;;;;;14.32;100.00;99645.80;105252;1270;69536;-70
2022/08/07 03:35:03;;;;;;;39.80;35.60;;;;;;;14.34;100.00;99647.77;105232;1271;74412;-70
2022/08/07 03:37:33;;;;;;;40.80;36.40;;;;;;;14.35;100.00;99645.22;105279;1271;61364;-71
2022/08/07 03:40:01;;;;;;;41.80;37.30;;;;;;;14.34;100.00;99652.58;105268;1271;61159;-70
2022/08/07 03:42:28;;;;;;;39.00;35.00;;;;;;;14.34;100.00;99654.19;105240;1271;75125;-71
2022/08/07 03:44:55;;;;;;;35.50;31.80;;;;;;;14.37;100.00;99655.95;105229;1271;69105;-72
2022/08/07 03:47:22;;;;;;;37.50;33.80;;;;;;;14.42;100.00;99657.20;104990;1271;71983;-71
2022/08/07 03:49:49;;;;;;;39.70;35.70;;;;;;;14.48;100.00;99654.10;105212;1271;61310;-71
2022/08/07 03:52:16;;;;;;;40.40;36.00;;;;;;;14.53;100.00;99655.20;105246;1271;61304;-70
2022/08/07 03:54:43;;;;;;;41.50;37.20;;;;;;;14.57;100.00;99659.92;105220;1271;76142;-70
2022/08/07 03:57:10;;;;;;;42.50;37.60;;;;;;;14.61;100.00;99658.34;105183;1271;61292;-70
2022/08/07 03:59:38;;;;;;;40.80;36.50;;;;;;;14.68;100.00;99658.34;105210;1271;74236;-71
2022/08/07 04:02:05;;;;;;;38.70;34.70;;;;;;;14.75;100.00;99658.80;105191;1271;61413;-70
2022/08/07 04:04:31;;;;;;;37.80;34.00;;;;;;;14.80;100.00;99657.53;105275;1271;61316;-71
2022/08/07 04:06:58;;;;;;;35.20;31.80;;;;;;;14.83;100.00;99657.05;105228;1271;61374;-70
2022/08/07 04:09:26;;;;;;;36.10;32.40;;;;;;;14.85;100.00;99660.89;105227;1271;67305;-71
2022/08/07 04:11:54;;;;;;;36.40;32.70;;;;;;;14.87;100.00;99662.34;105224;1271;74939;-71
2022/08/07 04:14:23;;;;;;;39.00;35.10;;;;;;;14.90;100.00;99662.64;105265;1271;61483;-71
2022/08/07 04:16:49;;;;;;;35.40;32.00;;;;;;;14.98;100.00;99663.70;105225;1270;62048;-70
2022/08/07 04:19:16;;;;;;;36.90;33.30;;;;;;;15.12;100.00;99668.04;105185;1271;75189;-70
2022/08/07 04:21:43;;;;;;;33.30;30.20;;;;;;;15.57;100.00;99669.06;105009;1271;69647;-70
2022/08/07 04:24:11;;;;;;;31.70;28.80;;;;;;;16.27;100.00;99668.80;105321;1271;73760;-70
2022/08/07 04:26:39;;;;;;;28.20;25.70;;;;;;;16.94;100.00;99668.64;105261;1271;61348;-70
2022/08/07 04:29:10;;;;;;;27.80;25.30;;;;;;;17.70;100.00;99660.62;105183;1271;61246;-70
2022/08/07 04:31:38;;;;;;;23.60;21.70;;;;;;;17.71;100.00;99659.60;105193;1271;76388;-70
2022/08/07 04:34:06;;;;;;;23.40;21.30;;;;;;;17.57;100.00;99663.86;105241;1271;68237;-71
2022/08/07 04:36:34;;;;;;;23.10;21.10;;;;;;;17.52;100.00;99669.84;104880;1271;73183;-71
2022/08/07 04:39:03;;;;;;;22.50;20.70;;;;;;;17.73;100.00;99668.41;105189;1271;61263;-71
2022/08/07 04:41:30;;;;;;;19.40;17.80;;;;;;;18.56;100.00;99671.31;105170;1271;61135;-71
2022/08/07 04:44:00;;;;;;;18.50;17.00;;;;;;;19.12;100.00;99669.80;104847;1271;76096;-71
2022/08/07 04:46:38;;;;;;;15.90;14.50;;;;;;;19.80;100.00;99668.94;105073;1271;70222;-69
2022/08/07 04:49:19;;;;;;;13.40;12.20;;;;;;;20.48;100.00;99665.17;105274;1271;74388;-70
2022/08/07 04:52:16;;;;;;;10.30;9.30;;;;;;;21.20;100.00;99665.05;105305;1270;61247;-71
2022/08/07 04:54:51;;;;;;;10.10;9.10;;;;;;;21.94;100.00;99660.44;104940;1274;61140;-70
2022/08/07 04:57:31;;;;;;;8.00;7.30;;;;;;;22.49;100.00;99663.35;105013;1271;75143;-71
2022/08/07 05:00:03;;;;;;;7.70;7.20;;;;;;;22.93;100.00;99664.67;105200;1271;70698;-71
2022/08/07 05:02:42;;;;;;;6.50;6.10;;;;;;;23.24;100.00;99664.63;105202;1270;73213;-70
2022/08/07 05:05:29;;;;;;;5.50;5.00;;;;;;;23.41;100.00;99662.69;105233;1270;61502;-70
2022/08/07 05:07:59;;;;;;;5.60;5.10;;;;;;;23.41;100.00;99661.80;105219;1271;61267;-71
2022/08/07 05:10:36;;;;;;;4.80;4.50;;;;;;;23.59;100.00;99674.73;104968;1271;75077;-71
2022/08/07 05:13:08;;;;;;;4.00;3.40;;;;;;;23.68;100.00;99677.33;105195;1271;69407;-71
2022/08/07 05:15:38;;;;;;;3.80;3.50;;;;;;;23.73;100.00;99675.14;105193;1271;72427;-71
2022/08/07 05:18:06;;;;;;;;;;;;;;;23.88;100.00;99674.73;105252;1271;61425;-71
2022/08/07 05:20:43;;;;;;;3.50;3.20;;;;;;;24.07;100.00;99674.95;105217;1271;61265;-71
2022/08/07 05:23:18;;;;;;;3.90;3.40;;;;;;;24.28;100.00;99680.45;105192;1271;75486;-72
2022/08/07 05:25:45;;;;;;;3.00;2.80;;;;;;;24.36;100.00;99681.33;105205;1270;68873;-71
2022/08/07 05:28:14;;;;;;;3.30;3.00;;;;;;;24.47;100.00;99680.59;105017;1274;73732;-72
2022/08/07 05:30:43;;;;;;;2.70;2.50;;;;;;;24.50;100.00;99682.42;105192;1270;61373;-71
2022/08/07 05:33:12;;;;;;;3.30;3.00;;;;;;;24.42;100.00;99681.17;105311;1271;61269;-70
2022/08/07 05:35:40;;;;;;;4.90;3.20;;;;;;;23.87;100.00;99680.63;105198;1271;74648;-71
2022/08/07 05:38:09;;;;;;;4.60;3.00;;;;;;;23.40;100.00;99680.21;105140;1271;69684;-72
2022/08/07 05:40:37;;;;;;;4.30;3.70;;;;;;;22.90;100.00;99682.54;105201;1270;73474;-72
2022/08/07 05:43:04;;;;;;;3.80;3.10;;;;;;;22.56;100.00;99683.45;105204;1271;61390;-70
2022/08/07 05:45:32;;;;;;;3.70;3.40;;;;;;;22.15;100.00;99681.58;105169;1271;61345;-72
2022/08/07 05:47:59;;;;;;;4.00;3.50;;;;;;;22.03;100.00;99682.82;105241;1271;75123;-70
2022/08/07 05:50:27;;;;;;;3.70;3.40;;;;;;;22.52;100.00;99676.84;105304;1270;70599;-70
2022/08/07 05:52:53;;;;;;;3.70;3.20;;;;;;;22.94;100.00;99681.73;105188;1271;73146;-71
2022/08/07 05:55:20;;;;;;;4.00;2.80;;;;;;;22.69;100.00;99677.02;105089;1271;61339;-70
2022/08/07 05:57:49;;;;;;;6.50;2.70;;;;;;;22.33;100.00;99672.83;104956;1271;62161;-70
2022/08/07 06:00:16;;;;;;;2.80;2.50;;;;;;;22.22;100.00;99675.49;105228;1271;75484;-70
2022/08/07 06:02:48;;;;;;;3.20;2.70;;;;;;;22.26;100.00;99680.62;105233;1271;70151;-71
2022/08/07 06:05:16;;;;;;;3.20;2.40;;;;;;;22.90;100.00;99673.84;105169;1271;74195;-70
2022/08/07 06:07:43;;;;;;;4.50;2.10;;;;;;;23.26;100.00;99681.42;105310;1271;61287;-71
2022/08/07 06:10:11;;;;;;;2.10;1.50;;;;;;;22.82;100.00;99683.04;104991;1271;61178;-71
2022/08/07 06:12:37;;;;;;;3.30;2.10;;;;;;;22.41;100.00;99683.62;105141;1271;76529;-71
2022/08/07 06:15:05;;;;;;;4.30;2.50;;;;;;;21.89;100.00;99689.47;105217;1271;69227;-71
2022/08/07 06:17:32;;;;;;;2.90;2.60;;;;;;;21.38;100.00;99688.59;105266;1271;72328;-70
2022/08/07 06:20:00;;;;;;;4.60;3.00;;;;;;;21.01;100.00;99698.93;105248;1271;61323;-72
2022/08/07 06:22:29;;;;;;;3.80;3.50;;;;;;;20.63;100.00;99704.80;105241;1271;61269;-70
2022/08/07 06:24:58;;;;;;;5.40;3.40;;;;;;;20.27;100.00;99702.68;105241;1271;76494;-70
2022/08/07 06:27:25;;;;;;;3.80;3.40;;;;;;;20.02;100.00;99700.79;105237;1271;69304;-70
2022/08/07 06:29:51;;;;;;;4.60;3.70;;;;;;;19.86;100.00;99704.63;105195;1271;74306;-70
2022/08/07 06:32:18;;;;;;;4.80;3.30;;;;;;;19.71;100.00;99703.52;105178;1271;61334;-73
2022/08/07 06:34:45;;;;;;;3.60;3.20;;;;;;;19.57;100.00;99704.02;104890;1271;61903;-71
2022/08/07 06:37:12;;;;;;;3.20;3.00;;;;;;;19.48;100.00;99702.69;105048;1270;75315;-71
2022/08/07 06:39:38;;;;;;;6.20;3.40;;;;;;;19.44;100.00;99702.39;105195;1271;70456;-71
2022/08/07 06:42:09;;;;;;;5.10;3.50;;;;;;;19.48;100.00;99705.40;105062;1271;74232;-72
2022/08/07 06:44:37;;;;;;;3.50;3.10;;;;;;;19.59;100.00;99706.05;105231;1271;61399;-71
2022/08/07 06:47:04;;;;;;;3.70;3.20;;;;;;;19.69;100.00;99705.09;105164;1271;61861;-71
2022/08/07 06:49:30;;;;;;;4.70;3.10;;;;;;;19.82;100.00;99708.84;105178;1271;75100;-70
2022/08/07 06:51:58;;;;;;;3.80;3.50;;;;;;;20.01;100.00;99705.70;105200;1271;68185;-70
2022/08/07 06:54:26;;;;;;;3.20;3.00;;;;;;;20.27;100.00;99710.66;105170;1270;73127;-70
2022/08/07 06:56:54;;;;;;;6.00;2.80;;;;;;;20.39;100.00;99712.92;105188;1269;61298;-71
2022/08/07 06:59:32;;;;;;;4.90;2.70;;;;;;;20.64;100.00;99707.81;105185;1271;62153;-71
2022/08/07 07:01:59;;;;;;;3.50;2.90;;;;;;;20.91;100.00;99707.18;105226;1270;76081;-71
2022/08/07 07:04:29;;;;;;;4.20;2.80;;;;;;;21.09;100.00;99704.72;105199;1271;69574;-71
2022/08/07 07:06:57;;;;;;;3.60;2.50;;;;;;;21.15;100.00;99708.59;104906;1271;74606;-71
2022/08/07 07:09:24;;;;;;;5.20;2.60;;;;;;;21.27;100.00;99712.83;105175;1271;61393;-70
2022/08/07 07:12:12;;;;;;;3.20;2.50;;;;;;;21.37;100.00;99714.53;105179;1271;61362;-71
2022/08/07 07:15:09;;;;;;;3.00;2.40;;;;;;;21.50;100.00;99716.88;105162;1271;75329;-70
2022/08/07 07:18:04;;;;;;;3.90;3.00;;;;;;;21.45;100.00;99720.80;105205;1271;68762;-71
2022/08/07 07:20:38;;;;;;;5.60;4.80;;;;;;;21.43;100.00;99723.33;105192;1271;72613;-70
2022/08/07 07:23:06;;;;;;;3.90;3.40;;;;;;;21.45;100.00;99725.08;105175;1271;61380;-70
2022/08/07 07:25:36;;;;;;;5.20;3.30;;;;;;;21.43;100.00;99729.29;105167;1271;61886;-70
2022/08/07 07:28:24;;;;;;;4.10;3.20;;;;;;;21.23;100.00;99730.58;105194;1271;75821;-70
2022/08/07 07:31:00;;;;;;;3.30;3.00;;;;;;;20.97;100.00;99730.73;105176;1271;70035;-70
2022/08/07 07:33:31;;;;;;;4.00;3.60;;;;;;;20.76;100.00;99733.90;105207;1271;72753;-70
2022/08/07 07:35:59;;;;;;;6.10;3.80;;;;;;;20.64;100.00;99734.37;105209;1271;61377;-70
2022/08/07 07:38:27;;;;;;;4.30;3.90;;;;;;;20.72;100.00;99731.42;105207;1271;61264;-71
2022/08/07 07:40:59;;;;;;;6.00;4.80;;;;;;;20.81;100.00;99730.20;105186;1271;76432;-71
2022/08/07 07:43:29;;;;;;;5.50;5.00;;;;;;;20.80;100.00;99726.12;105261;1271;70270;-70
2022/08/07 07:45:56;;;;;;;5.00;4.60;;;;;;;20.83;100.00;99724.56;105016;1271;75044;-70
2022/08/07 07:48:26;;;;;;;5.50;5.00;;;;;;;20.88;100.00;99727.73;105159;1271;61339;-71
2022/08/07 07:50:54;;;;;;;5.20;4.80;;;;;;;20.97;100.00;99728.08;105133;1271;61267;-70
2022/08/07 07:53:23;;;;;;;5.30;4.30;;;;;;;20.98;100.00;99730.70;105233;1271;76298;-71
2022/08/07 07:55:57;;;;;;;5.80;4.60;;;;;;;20.97;100.00;99728.77;104910;1272;69104;-69
2022/08/07 07:58:28;;;;;;;5.70;5.10;;;;;;;20.93;100.00;99726.66;105141;1271;73266;-70
2022/08/07 08:00:56;;;;;;;9.70;5.20;;;;;;;20.97;100.00;99728.09;105164;1271;61287;-70
2022/08/07 08:03:23;;;;;;;5.30;4.90;;;;;;;21.06;100.00;99724.33;105208;1271;61951;-71
2022/08/07 08:05:51;;;;;;;6.40;5.70;;;;;;;21.14;100.00;99721.90;105187;1271;76322;-70
2022/08/07 08:08:18;;;;;;;7.80;5.50;;;;;;;21.16;100.00;99726.00;105233;1271;70588;-71
2022/08/07 08:10:45;;;;;;;6.00;5.50;;;;;;;21.22;100.00;99729.42;105485;1271;74083;-70
2022/08/07 08:13:13;;;;;;;6.50;5.30;;;;;;;21.15;100.00;99727.40;105196;1272;61380;-70
2022/08/07 08:15:42;;;;;;;5.40;4.50;;;;;;;21.04;100.00;99730.46;105254;1271;61316;-71
2022/08/07 08:18:10;;;;;;;5.30;4.70;;;;;;;21.10;100.00;99729.80;105243;1270;74988;-71
2022/08/07 08:20:39;;;;;;;4.20;3.60;;;;;;;21.25;100.00;99729.25;105338;1271;69110;-71
2022/08/07 08:28:44;;;;;;;3.30;2.20;;;;;;;21.36;100.00;99733.46;105240;1271;62226;-71
2022/08/07 08:31:23;;;;;;;4.10;2.60;;;;;;;21.48;100.00;99731.45;105351;1271;75099;-71
2022/08/07 08:33:55;;;;;;;3.70;3.30;;;;;;;21.66;100.00;99730.77;105190;1271;70214;-71
2022/08/07 08:36:28;;;;;;;4.10;2.40;;;;;;;21.72;100.00;99729.56;105227;1271;73835;-70
2022/08/07 08:38:56;;;;;;;3.70;1.80;;;;;;;21.66;100.00;99725.54;104974;1272;61349;-71
2022/08/07 08:41:33;;;;;;;5.40;2.20;;;;;;;21.81;100.00;99730.30;105217;1271;62158;-71
2022/08/07 08:44:23;;;;;;;3.70;2.30;;;;;;;22.00;100.00;99724.30;105211;1271;75453;-72
2022/08/07 08:47:01;;;;;;;3.60;1.80;;;;;;;21.93;100.00;99722.40;105229;1271;70496;-69
2022/08/07 08:49:49;;;;;;;2.60;1.90;;;;;;;21.89;100.00;99722.03;105248;1271;72065;-71
2022/08/07 08:52:23;;;;;;;4.90;2.00;;;;;;;22.01;100.00;99723.39;105361;1271;61330;-72
2022/08/07 08:55:09;;;;;;;3.70;2.50;;;;;;;22.11;100.00;99724.65;105226;1269;61250;-70
2022/08/07 08:57:43;;;;;;;3.60;2.50;;;;;;;22.03;100.00;99725.95;105424;1271;74428;-70
2022/08/07 09:00:11;;;;;;;3.90;2.20;;;;;;;22.07;100.00;99724.60;105320;1271;69947;-71
2022/08/07 09:02:37;;;;;;;2.60;2.40;;;;;;;22.27;100.00;99716.92;104729;1274;73422;-70
2022/08/07 09:05:10;;;;;;;3.20;2.40;;;;;;;22.64;100.00;99709.40;105219;1271;61279;-70
2022/08/07 09:07:50;;;;;;;3.00;2.00;;;;;;;22.93;100.00;99704.71;105249;1271;61232;-71
2022/08/07 09:10:20;;;;;;;;;;;;;;;22.98;100.00;99702.35;105198;1271;75177;-70
2022/08/07 09:13:28;;;;;;;4.30;1.80;;;;;;;23.03;100.00;99701.46;105230;1271;66566;-70
2022/08/07 09:16:09;;;;;;;2.60;1.40;;;;;;;22.96;100.00;99695.19;104862;1277;74252;-70
2022/08/07 09:18:41;;;;;;;4.50;1.70;;;;;;;23.07;100.00;99696.85;104741;1277;61290;-71
2022/08/07 09:21:23;;;;;;;1.50;1.30;;;;;;;23.06;100.00;99698.45;104831;1277;61340;-71
2022/08/07 09:23:52;;;;;;;4.70;1.40;;;;;;;22.91;100.00;99696.73;104811;1277;74180;-70
2022/08/07 09:26:19;;;;;;;2.80;1.60;;;;;;;22.93;100.00;99693.61;104834;1277;69297;-71
2022/08/07 09:28:52;;;;;;;3.90;1.40;;;;;;;23.13;100.00;99693.67;104818;1277;61335;-70
2022/08/07 09:31:31;;;;;;;2.40;1.20;;;;;;;23.33;100.00;99691.73;104803;1277;61467;-71
2022/08/07 09:34:28;;;;;;;1.50;0.80;;;;;;;23.41;100.00;99692.13;104825;1277;61890;-71
2022/08/07 09:37:01;;;;;;;1.60;0.70;;;;;;;23.36;100.00;99691.30;104184;1283;75065;-71
2022/08/07 09:39:46;;;;;;;0.90;0.50;;;;;;;23.30;100.00;99690.98;104168;1283;69111;-71
2022/08/07 09:42:48;;;;;;;1.00;0.60;;;;;;;23.21;100.00;99695.52;104157;1283;74727;-71
2022/08/07 09:45:25;;;;;;;1.40;0.80;;;;;;;23.07;100.00;99692.70;104171;1283;61317;-71
2022/08/07 09:47:58;;;;;;;2.50;0.80;;;;;;;23.13;100.00;99693.91;103086;1283;1776965;-71
2022/08/07 09:51:03;;;;;;;2.10;0.80;;;;;;;23.21;100.00;99694.09;104216;1283;73915;-71
2022/08/07 09:53:37;;;;;;;1.40;0.90;;;;;;;23.27;100.00;99693.66;104435;1277;68590;-71
2022/08/07 09:56:24;;;;;;;1.80;1.00;;;;;;;23.27;100.00;99691.21;104789;1277;74252;-70
2022/08/07 09:59:29;;;;;;;2.70;1.10;;;;;;;23.38;100.00;99692.80;104691;1277;61273;-70
2022/08/07 10:02:08;;;;;;;3.40;1.10;;;;;;;23.41;100.00;99686.42;104042;1284;59998;-71
2022/08/07 10:05:12;;;;;;;2.10;1.30;;;;;;;23.45;100.00;99683.41;104283;1283;76040;-71
2022/08/07 10:07:40;;;;;;;1.70;1.10;;;;;;;23.39;100.00;99675.04;104279;1283;71024;-71
2022/08/07 10:10:21;;;;;;;2.30;1.40;;;;;;;23.46;100.00;99669.20;104149;1283;73578;-71
2022/08/07 10:12:59;;;;;;;2.00;1.20;;;;;;;23.64;100.00;99669.04;104136;1283;61312;-70
2022/08/07 10:15:38;;;;;;;3.60;1.20;;;;;;;23.84;100.00;99658.27;104732;1277;61461;-71
2022/08/07 10:18:33;;;;;;;2.00;1.20;;;;;;;24.03;100.00;99655.27;104794;1277;75114;-71
2022/08/07 10:21:20;;;;;;;1.60;1.40;;;;;;;24.21;100.00;99658.92;104826;1277;70642;-71
2022/08/07 10:24:17;;;;;;;4.20;1.10;;;;;;;24.40;100.00;99658.52;104770;1277;74375;-70
2022/08/07 10:26:44;;;;;;;2.90;1.20;;;;;;;24.60;100.00;99655.91;104835;1277;61309;-71
2022/08/07 10:29:35;;;;;;;2.10;1.30;;;;;;;24.71;100.00;99650.63;104741;1277;61233;-71
2022/08/07 10:32:52;;;;;;;2.30;1.20;;;;;;;25.01;100.00;99642.58;104764;1277;74654;-71
2022/08/07 10:35:56;;;;;;;3.60;1.30;;;;;;;25.27;100.00;99641.04;104197;1283;70475;-70
2022/08/07 10:38:43;;;;;;;2.30;1.30;;;;;;;25.49;100.00;99640.47;104296;1277;73707;-72
2022/08/07 10:41:36;;;;;;;3.10;1.50;;;;;;;25.38;100.00;99641.95;104785;1277;61404;-71
2022/08/07 10:44:26;;;;;;;1.40;1.10;;;;;;;25.24;100.00;99638.05;104740;1277;61215;-71
2022/08/07 10:46:58;;;;;;;2.60;1.10;;;;;;;24.99;100.00;99628.83;104809;1277;76511;-71
2022/08/07 10:49:36;;;;;;;1.20;1.10;;;;;;;24.89;100.00;99634.04;104727;1277;68285;-71
2022/08/07 10:52:13;;;;;;;2.00;1.10;;;;;;;24.84;100.00;99630.34;104791;1277;74029;-71
2022/08/07 10:54:45;;;;;;;5.50;1.30;;;;;;;24.88;100.00;99626.54;104779;1277;61729;-72
2022/08/07 10:57:42;;;;;;;3.00;1.30;;;;;;;24.88;100.00;99622.83;104720;1277;61368;-72
2022/08/07 11:00:11;;;;;;;2.20;1.10;;;;;;;24.80;100.00;99617.24;104748;1277;75387;-72
2022/08/07 11:02:40;;;;;;;;;;;;;;;24.73;100.00;99620.42;104855;1277;68176;-72
2022/08/07 11:05:25;;;;;;;2.50;1.30;;;;;;;24.51;100.00;99620.96;104751;1277;74262;-71
2022/08/07 11:08:30;;;;;;;2.50;1.00;;;;;;;24.32;100.00;99616.80;104741;1277;61385;-71
2022/08/07 11:11:15;;;;;;;1.80;1.10;;;;;;;24.38;100.00;99617.00;104941;1272;61371;-71
2022/08/07 11:13:52;;;;;;;1.60;1.20;;;;;;;24.47;100.00;99620.00;105240;1271;75415;-71
2022/08/07 11:16:27;;;;;;;1.90;1.20;;;;;;;24.41;100.00;99617.59;105296;1271;70392;-71
2022/08/07 11:19:08;;;;;;;2.10;1.20;;;;;;;24.17;100.00;99616.98;105231;1271;73318;-72
2022/08/07 11:22:06;;;;;;;1.60;1.20;;;;;;;23.69;100.00;99617.70;105257;1271;61246;-71
2022/08/07 11:24:38;;;;;;;2.20;1.30;;;;;;;23.14;100.00;99617.40;105286;1271;61255;-72
2022/08/07 11:27:53;;;;;;;3.00;1.40;;;;;;;22.78;100.00;99614.09;105326;1271;76227;-71
2022/08/07 11:30:25;;;;;;;2.60;1.50;;;;;;;22.40;100.00;99617.91;104737;1277;70520;-72
2022/08/07 11:33:24;;;;;;;4.20;1.20;;;;;;;22.19;100.00;99616.19;104710;1277;73298;-72
2022/08/07 11:35:53;;;;;;;2.10;1.80;;;;;;;21.96;100.00;99618.27;104815;1277;61304;-74
2022/08/07 11:38:36;;;;;;;2.80;1.60;;;;;;;21.78;100.00;99615.05;104783;1277;61314;-73
2022/08/07 11:41:15;;;;;;;1.90;1.50;;;;;;;21.67;100.00;99612.25;104747;1278;75123;-74
2022/08/07 11:44:04;;;;;;;2.70;1.70;;;;;;;21.59;100.00;99609.98;104765;1277;70284;-73